Airfield :
LOGIN :

Register | Disclaimer

   EN    FR    IT 

 










Legend :    VFR   Marginal VFR   IFR   Intensive IFR   Very Intensive IFR
Visi :
Ceiling :
>= 8 km
>= 3000ft
5 to 8 km
1000 to 3000 ft
1500m to 5 km
500 to 1000 ft
800 to 1500m
200 to 500 ft
< 800m
< 200 ft
Symbols :   Thunderstorms  Fog  Heavy snow  Heavy precipitations  Wind > 20 kt
SIGMETs :     Misc.  Thunderstorms  Icing  Turbulence  Mountain Waves  Volcanic Ashes






- Airport Elevation : 76 ft
- IATA code : KID


ESMK - Kristianstad

CURRENT METAR :
  • 021150Z 03009KT 9999 BKN011 04/03 Q1031

EXPIRED METARs :
  • 021120Z 03007KT 9999 BKN010 04/03 Q1031
  • 021050Z 03008KT 9999 BKN010 04/03 Q1031
  • 021020Z 03008KT 9999 BKN010 04/03 Q1031
  • 020950Z 02008KT 9999 BKN009 04/03 Q1031
  • 020920Z 03006KT 9999 BKN009 04/03 Q1031

TAF TAF ESMK
Valid from the 02 at 12:00 until the 02 at 18:00 UTC


021111Z 0212/0218 03008KT 9999 SCT010 BKN015
TEMPO 0212/0218 BKN009



MET'MAP, your aeronautical weather chart ! - Copyright ORBIFLY December 2007 - Disclaimer

ORBIFLY MET'MAP TEAM :

Programming & Development : Alexandra Zaïnal
Original concept : Baudouin d'Aumeries
Technical & hardware support : Manuel Goepfert
Assistance : Marc-Olivier Méhu




SOURCES & CREDITS :

   NOAA